createdAt,value
2019-02-07T00:02:33.290Z,14.90
2019-02-07T00:05:02.205Z,13.93
2019-02-07T00:07:30.987Z,15.60
2019-02-07T00:09:59.861Z,13.80
2019-02-07T00:12:28.730Z,14.57
2019-02-07T00:18:00.181Z,13.17
2019-02-07T00:20:29.458Z,13.70
2019-02-07T00:22:58.782Z,10.67
2019-02-07T00:25:28.102Z,11.40
2019-02-07T00:27:57.427Z,11.53
2019-02-07T00:30:26.738Z,11.63
2019-02-07T00:35:57.899Z,11.13
2019-02-07T00:41:29.346Z,10.00
2019-02-07T00:43:58.652Z,11.70
2019-02-07T00:49:30.468Z,7.70
2019-02-07T00:51:59.988Z,9.53
2019-02-07T00:54:29.298Z,7.40
2019-02-07T00:56:58.608Z,9.23
2019-02-07T01:02:29.686Z,12.60
2019-02-07T01:04:59.003Z,8.00
2019-02-07T01:07:28.313Z,9.53
2019-02-07T01:09:57.729Z,10.10
2019-02-07T01:12:26.235Z,9.50
2019-02-07T01:15:15.552Z,10.63
2019-02-07T01:20:26.162Z,12.87
2019-02-07T01:23:15.381Z,8.83
2019-02-07T01:28:46.228Z,9.73
2019-02-07T01:31:15.544Z,12.27
2019-02-07T01:33:44.852Z,6.93
2019-02-07T01:36:14.161Z,11.20
2019-02-07T01:38:43.485Z,12.83
2019-02-07T01:41:12.794Z,9.40
2019-02-07T01:46:43.772Z,11.77
2019-02-07T01:49:13.211Z,10.83
2019-02-07T01:52:02.542Z,10.57
2019-02-07T01:54:42.566Z,10.43
2019-02-07T01:57:11.983Z,12.13
2019-02-07T02:00:01.459Z,10.83
2019-02-07T02:02:29.991Z,12.53
2019-02-07T02:11:02.616Z,10.93
2019-02-07T02:13:31.526Z,10.87
2019-02-07T02:21:46.258Z,12.40
2019-02-07T02:30:22.516Z,12.00
2019-02-07T02:33:12.255Z,13.07
2019-02-07T02:35:41.625Z,11.73
2019-02-07T02:41:12.688Z,13.27
2019-02-07T02:46:44.028Z,13.53
2019-02-07T02:52:15.185Z,16.73
2019-02-07T02:57:25.588Z,15.00
2019-02-07T02:59:54.393Z,12.53
2019-02-07T03:02:43.177Z,13.30
2019-02-07T03:08:34.214Z,14.73
2019-02-07T03:14:05.301Z,14.33
2019-02-07T03:19:55.706Z,12.40
2019-02-07T03:22:44.877Z,13.27
2019-02-07T03:25:32.871Z,13.07
2019-02-07T03:28:20.842Z,12.07
2019-02-07T03:36:53.851Z,11.50
2019-02-07T03:39:38.638Z,14.20
2019-02-07T03:45:29.508Z,13.20
2019-02-07T03:48:20.983Z,15.00
2019-02-07T03:51:09.809Z,13.00
2019-02-07T03:53:57.786Z,15.73
2019-02-07T03:56:36.657Z,13.63
2019-02-07T04:05:29.648Z,16.70
2019-02-07T04:11:19.735Z,14.83
2019-02-07T04:14:07.721Z,16.07
2019-02-07T04:16:42.749Z,13.70
2019-02-07T04:19:31.520Z,12.60
2019-02-07T04:22:19.397Z,15.67
2019-02-07T04:25:07.388Z,19.03
2019-02-07T04:27:53.735Z,20.83
2019-02-07T04:33:44.259Z,20.60
2019-02-07T04:36:24.754Z,21.57
2019-02-07T04:39:12.619Z,18.93
2019-02-07T04:42:00.591Z,18.77
2019-02-07T04:44:48.583Z,20.40
2019-02-07T04:47:37.671Z,24.40
2019-02-07T04:53:28.650Z,24.00
2019-02-07T04:59:06.857Z,19.07
2019-02-07T05:02:16.092Z,21.43
2019-02-07T05:05:04.058Z,24.30
2019-02-07T05:07:52.836Z,21.43
2019-02-07T05:10:40.723Z,31.53
2019-02-07T05:13:28.602Z,28.20
2019-02-07T05:19:18.568Z,24.80
2019-02-07T05:21:58.836Z,27.80
2019-02-07T05:24:46.905Z,30.07
2019-02-07T05:27:35.154Z,33.23
2019-02-07T05:33:25.104Z,25.87
2019-02-07T05:36:13.091Z,24.90
2019-02-07T05:42:03.358Z,31.47
2019-02-07T05:44:51.451Z,32.30
2019-02-07T05:47:39.330Z,33.60
2019-02-07T05:50:27.645Z,29.97
2019-02-07T05:53:15.625Z,34.57
2019-02-07T05:56:03.575Z,36.93
2019-02-07T05:58:52.645Z,51.83
2019-02-07T06:04:30.364Z,49.17
2019-02-07T06:07:19.197Z,42.27
2019-02-07T06:10:08.067Z,47.00
2019-02-07T06:12:56.845Z,35.00
2019-02-07T06:18:47.404Z,32.50
2019-02-07T06:24:37.513Z,30.30
2019-02-07T06:27:25.562Z,28.50
2019-02-07T06:30:14.341Z,28.47
2019-02-07T06:33:02.420Z,30.37
2019-02-07T06:41:12.935Z,39.90
2019-02-07T06:44:01.742Z,36.67
2019-02-07T06:46:49.655Z,30.97
2019-02-07T06:52:41.745Z,37.53
2019-02-07T06:55:29.668Z,43.13
2019-02-07T06:58:17.538Z,51.57
2019-02-07T07:00:54.748Z,45.97
2019-02-07T07:03:42.806Z,33.97
2019-02-07T07:06:30.696Z,34.20
2019-02-07T07:09:18.689Z,39.67
2019-02-07T07:12:07.546Z,45.30
2019-02-07T07:14:55.529Z,40.23
2019-02-07T07:17:43.511Z,42.40
2019-02-07T07:20:31.622Z,47.90
2019-02-07T07:23:19.610Z,50.20
2019-02-07T07:26:00.565Z,47.10
2019-02-07T07:28:48.553Z,46.73
2019-02-07T07:31:36.544Z,51.47
2019-02-07T07:37:26.807Z,45.00
2019-02-07T07:40:14.791Z,47.23
2019-02-07T07:49:00.029Z,42.40
2019-02-07T07:51:47.918Z,40.77
2019-02-07T07:54:36.014Z,40.17
2019-02-07T07:57:16.858Z,40.30
2019-02-07T08:00:07.043Z,38.93
2019-02-07T08:02:55.036Z,36.73
2019-02-07T08:13:47.517Z,41.50
2019-02-07T08:16:35.679Z,33.47
2019-02-07T08:19:23.888Z,31.60
2019-02-07T08:27:57.028Z,28.80
2019-02-07T08:30:44.907Z,39.03
2019-02-07T08:36:35.028Z,33.07
2019-02-07T08:42:26.202Z,41.00
2019-02-07T08:45:14.596Z,32.03
2019-02-07T08:48:04.027Z,30.27
2019-02-07T08:50:52.965Z,33.97
2019-02-07T08:53:41.145Z,31.60
2019-02-07T08:56:29.054Z,28.27
2019-02-07T09:02:00.072Z,31.47
2019-02-07T09:07:50.485Z,32.77
2019-02-07T09:10:38.861Z,35.00
2019-02-07T09:13:26.750Z,35.87
2019-02-07T09:16:15.790Z,31.20
2019-02-07T09:18:53.870Z,27.57
2019-02-07T09:21:42.899Z,31.80
2019-02-07T09:27:33.677Z,30.40
2019-02-07T09:33:05.187Z,31.80
2019-02-07T09:44:13.522Z,30.60
2019-02-07T09:47:01.607Z,25.87
2019-02-07T09:49:49.505Z,26.13
2019-02-07T09:52:37.539Z,24.63
2019-02-07T09:55:18.777Z,27.37
2019-02-07T09:58:07.584Z,28.10
2019-02-07T10:00:48.611Z,29.13
2019-02-07T10:06:25.556Z,27.20
2019-02-07T10:09:13.581Z,29.23
2019-02-07T10:12:02.869Z,29.40
2019-02-07T10:17:34.615Z,27.60
2019-02-07T10:20:24.253Z,29.30
2019-02-07T10:23:12.430Z,30.33
2019-02-07T10:26:01.978Z,32.17
2019-02-07T10:28:49.952Z,32.37
2019-02-07T10:31:37.950Z,30.63
2019-02-07T10:34:26.027Z,32.63
2019-02-07T10:37:07.786Z,29.97
2019-02-07T10:39:56.556Z,29.47
2019-02-07T10:42:45.383Z,33.33
2019-02-07T10:48:44.221Z,32.27
2019-02-07T10:51:18.942Z,35.20
2019-02-07T10:54:07.822Z,31.57
2019-02-07T10:56:55.896Z,29.23
2019-02-07T10:59:43.781Z,31.80
2019-02-07T11:05:34.209Z,25.13
2019-02-07T11:11:06.216Z,38.57
2019-02-07T11:13:46.096Z,32.47
2019-02-07T11:19:36.062Z,31.00
2019-02-07T11:25:28.551Z,30.97
2019-02-07T11:28:10.543Z,27.97
2019-02-07T11:34:00.353Z,36.03
2019-02-07T11:36:54.071Z,29.17
2019-02-07T11:39:38.108Z,26.87
2019-02-07T11:42:26.245Z,41.27
2019-02-07T11:45:15.035Z,32.87
2019-02-07T11:48:03.016Z,24.00
2019-02-07T11:50:51.816Z,26.00
2019-02-07T11:53:39.723Z,26.20
2019-02-07T11:56:27.708Z,30.03
2019-02-07T11:59:16.488Z,28.30
2019-02-07T12:02:09.119Z,26.63
2019-02-07T12:05:05.796Z,32.20
2019-02-07T12:07:54.611Z,34.37
2019-02-07T12:10:42.484Z,32.03
2019-02-07T12:13:30.563Z,29.03
2019-02-07T12:16:20.086Z,25.80
2019-02-07T12:19:17.691Z,25.50
2019-02-07T12:22:16.647Z,28.37
2019-02-07T12:28:07.276Z,31.63
2019-02-07T12:33:39.647Z,32.03
2019-02-07T12:36:20.274Z,34.57
2019-02-07T12:38:55.476Z,30.47
2019-02-07T12:41:44.246Z,36.70
2019-02-07T12:44:32.139Z,36.93
2019-02-07T12:47:21.211Z,36.27
2019-02-07T12:53:11.102Z,31.67
2019-02-07T12:55:59.081Z,35.67
2019-02-07T12:58:48.073Z,63.33
2019-02-07T13:01:36.051Z,49.60
2019-02-07T13:04:25.613Z,48.90
2019-02-07T13:07:13.625Z,42.33
2019-02-07T13:10:01.616Z,30.93
2019-02-07T13:12:49.533Z,25.70
2019-02-07T13:15:38.311Z,41.77
2019-02-07T13:18:26.382Z,37.57
2019-02-07T13:21:14.459Z,43.83
2019-02-07T13:24:02.423Z,45.10
2019-02-07T13:29:53.060Z,42.20
2019-02-07T13:32:41.944Z,42.03
2019-02-07T13:35:22.467Z,41.83
2019-02-07T13:38:11.348Z,39.57
2019-02-07T13:40:59.330Z,44.07
2019-02-07T13:43:48.135Z,34.23
2019-02-07T13:46:36.215Z,32.50
2019-02-07T13:49:25.038Z,36.23
2019-02-07T13:52:13.826Z,37.50
2019-02-07T13:54:52.572Z,46.27
2019-02-07T14:00:43.074Z,39.47
2019-02-07T14:03:33.398Z,38.73
2019-02-07T14:06:22.092Z,36.13
2019-02-07T14:09:10.926Z,31.63
2019-02-07T14:11:59.713Z,32.73
2019-02-07T14:14:48.508Z,35.93
2019-02-07T14:17:36.730Z,37.23
2019-02-07T14:20:26.510Z,27.97
2019-02-07T14:23:14.496Z,33.80
2019-02-07T14:26:03.552Z,36.77
2019-02-07T14:28:52.469Z,44.60
2019-02-07T14:31:41.247Z,44.80
2019-02-07T14:34:27.741Z,45.43
2019-02-07T14:37:15.920Z,46.80
2019-02-07T14:40:04.758Z,50.57
2019-02-07T14:42:53.535Z,47.57
2019-02-07T14:45:42.347Z,47.97
2019-02-07T14:48:22.435Z,37.43
2019-02-07T14:50:51.907Z,31.07
2019-02-07T14:56:23.221Z,30.00
2019-02-07T14:58:52.146Z,30.93
2019-02-07T15:04:23.857Z,32.27
2019-02-07T15:06:52.984Z,32.00
2019-02-07T15:09:22.397Z,31.77
2019-02-07T15:11:50.910Z,41.70
2019-02-07T15:14:20.238Z,32.20
2019-02-07T15:16:49.555Z,34.57
2019-02-07T15:19:18.860Z,32.90
2019-02-07T15:22:08.093Z,31.87
2019-02-07T15:24:37.416Z,34.73
2019-02-07T15:27:06.723Z,29.17
2019-02-07T15:29:35.442Z,34.33
2019-02-07T15:32:04.763Z,34.87
2019-02-07T15:34:34.070Z,34.70
2019-02-07T15:37:03.492Z,32.60
2019-02-07T15:39:32.806Z,35.60
2019-02-07T15:42:01.347Z,36.63
2019-02-07T15:44:30.082Z,42.37
2019-02-07T15:46:58.779Z,37.20
2019-02-07T15:49:48.038Z,44.30
2019-02-07T15:52:17.462Z,46.17
2019-02-07T15:54:45.887Z,45.30
2019-02-07T15:57:14.394Z,43.13
2019-02-07T16:00:03.038Z,45.67
2019-02-07T16:02:36.492Z,51.87
2019-02-07T16:05:08.060Z,48.87
2019-02-07T16:07:37.769Z,55.37
2019-02-07T16:10:09.942Z,49.27
2019-02-07T16:12:38.855Z,41.00
2019-02-07T16:15:09.168Z,38.40
2019-02-07T16:17:38.002Z,40.97
2019-02-07T16:20:11.423Z,45.40
2019-02-07T16:22:41.066Z,43.40
2019-02-07T16:25:11.207Z,43.73
2019-02-07T16:27:40.107Z,49.40
2019-02-07T16:30:32.192Z,62.13
2019-02-07T16:33:01.294Z,60.03
2019-02-07T16:35:30.651Z,50.07
2019-02-07T16:37:59.574Z,48.00
2019-02-07T16:43:30.888Z,51.80
2019-02-07T16:46:00.205Z,57.10
2019-02-07T16:48:29.508Z,48.83
2019-02-07T16:51:00.496Z,47.17
2019-02-07T16:53:47.941Z,48.97
2019-02-07T16:56:17.261Z,48.37
2019-02-07T16:58:46.582Z,54.37
2019-02-07T17:03:58.867Z,55.27
2019-02-07T17:06:28.378Z,56.00
2019-02-07T17:08:57.720Z,55.27
2019-02-07T17:11:27.026Z,36.93
2019-02-07T17:13:55.747Z,35.40
2019-02-07T17:16:25.055Z,34.40
2019-02-07T17:18:53.567Z,36.43
2019-02-07T17:21:42.799Z,30.43
2019-02-07T17:24:12.333Z,31.20
2019-02-07T17:26:40.871Z,30.87
2019-02-07T17:29:10.186Z,37.43
2019-02-07T17:31:59.391Z,37.33
2019-02-07T17:34:28.711Z,30.87
2019-02-07T17:36:58.010Z,34.93
2019-02-07T17:39:27.504Z,32.90
2019-02-07T17:41:59.457Z,44.87
2019-02-07T17:44:46.147Z,41.17
2019-02-07T17:47:14.858Z,40.83
2019-02-07T17:49:43.382Z,41.30
2019-02-07T17:52:12.711Z,32.47
2019-02-07T17:55:01.953Z,32.90
2019-02-07T17:57:31.272Z,30.20
2019-02-07T18:00:00.689Z,37.30
2019-02-07T18:02:30.000Z,34.00
2019-02-07T18:04:59.323Z,38.63
2019-02-07T18:07:28.630Z,38.03
2019-02-07T18:09:57.953Z,40.27
2019-02-07T18:12:27.258Z,38.07
2019-02-07T18:14:56.579Z,41.47
2019-02-07T18:17:25.898Z,37.40
2019-02-07T18:19:54.347Z,44.67
2019-02-07T18:22:43.584Z,43.03
2019-02-07T18:25:13.118Z,43.27
2019-02-07T18:27:42.650Z,43.43
2019-02-07T18:30:14.735Z,44.33
2019-02-07T18:32:43.543Z,45.17
2019-02-07T18:35:13.124Z,46.27
2019-02-07T18:37:41.841Z,39.03
2019-02-07T18:40:14.555Z,37.40
2019-02-07T18:42:43.856Z,45.73
2019-02-07T18:48:15.649Z,35.67
2019-02-07T18:50:44.985Z,35.40
2019-02-07T18:53:14.332Z,36.37
2019-02-07T18:59:06.146Z,42.13
2019-02-07T19:01:35.460Z,41.60
2019-02-07T19:04:04.891Z,37.73
2019-02-07T19:06:34.200Z,35.93
2019-02-07T19:12:07.450Z,35.80
2019-02-07T19:14:36.849Z,35.77
2019-02-07T19:17:06.197Z,31.67
2019-02-07T19:19:35.539Z,25.27
2019-02-07T19:22:04.865Z,24.60
2019-02-07T19:24:54.175Z,24.90
2019-02-07T19:27:23.505Z,19.73
2019-02-07T19:29:52.810Z,22.40
2019-02-07T19:32:22.124Z,24.97
2019-02-07T19:34:51.337Z,22.00
2019-02-07T19:40:23.236Z,19.27
2019-02-07T19:42:51.989Z,21.73
2019-02-07T19:45:21.423Z,23.20
2019-02-07T19:47:50.152Z,21.70
2019-02-07T19:50:21.601Z,20.30
2019-02-07T19:52:50.523Z,26.77
2019-02-07T19:58:23.051Z,20.47
2019-02-07T20:00:52.496Z,21.53
2019-02-07T20:03:21.815Z,20.10
2019-02-07T20:06:03.500Z,17.50
2019-02-07T20:08:43.580Z,19.60
2019-02-07T20:11:12.299Z,17.70
2019-02-07T20:13:41.614Z,19.90
2019-02-07T20:16:11.023Z,19.77
2019-02-07T20:18:40.603Z,22.77
2019-02-07T20:21:09.936Z,23.20
2019-02-07T20:23:39.736Z,23.33
2019-02-07T20:26:28.457Z,17.60
2019-02-07T20:28:57.773Z,20.33
2019-02-07T20:31:46.974Z,22.93
2019-02-07T20:37:18.045Z,19.67
2019-02-07T20:39:47.360Z,21.43
2019-02-07T20:45:39.406Z,19.83
2019-02-07T20:51:11.300Z,19.93
2019-02-07T20:53:40.724Z,26.03
2019-02-07T20:56:10.037Z,25.23
2019-02-07T20:58:39.356Z,24.77
2019-02-07T21:01:08.668Z,23.87
2019-02-07T21:03:37.977Z,29.33
2019-02-07T21:09:09.949Z,60.63
2019-02-07T21:14:40.617Z,47.10
2019-02-07T21:17:09.327Z,55.67
2019-02-07T21:19:37.838Z,56.27
2019-02-07T21:25:20.871Z,39.00
2019-02-07T21:27:49.385Z,32.17
2019-02-07T21:30:20.590Z,29.67
2019-02-07T21:32:49.850Z,31.40
2019-02-07T21:38:20.323Z,28.67
2019-02-07T21:40:49.644Z,25.07
2019-02-07T21:43:18.164Z,24.40
2019-02-07T21:45:47.487Z,24.50
2019-02-07T21:48:16.802Z,24.00
2019-02-07T21:50:46.147Z,40.93
2019-02-07T21:53:15.615Z,47.57
2019-02-07T21:55:44.445Z,42.87
2019-02-07T21:58:33.662Z,36.17
2019-02-07T22:01:03.186Z,27.83
2019-02-07T22:03:31.792Z,21.97
2019-02-07T22:06:00.313Z,18.90
2019-02-07T22:08:28.849Z,20.60
2019-02-07T22:10:58.286Z,20.77
2019-02-07T22:13:27.603Z,20.80
2019-02-07T22:15:56.929Z,22.47
2019-02-07T22:18:25.458Z,21.43
2019-02-07T22:20:54.786Z,21.00
2019-02-07T22:23:24.095Z,23.40
2019-02-07T22:25:53.006Z,22.23
2019-02-07T22:28:22.338Z,19.67
2019-02-07T22:30:50.757Z,18.33
2019-02-07T22:33:20.096Z,20.23
2019-02-07T22:35:49.412Z,25.63
2019-02-07T22:38:18.748Z,20.47
2019-02-07T22:41:07.982Z,22.57
2019-02-07T22:43:36.615Z,25.33
2019-02-07T22:46:05.937Z,29.37
2019-02-07T22:48:35.359Z,28.80
2019-02-07T22:51:04.211Z,23.33
2019-02-07T22:56:35.405Z,22.47
2019-02-07T23:02:07.906Z,23.47
2019-02-07T23:04:36.386Z,22.37
2019-02-07T23:07:05.097Z,22.83
2019-02-07T23:09:34.022Z,23.27
2019-02-07T23:14:46.353Z,22.23
2019-02-07T23:17:14.753Z,24.90
2019-02-07T23:19:43.266Z,23.10
2019-02-07T23:22:32.499Z,22.90
2019-02-07T23:25:01.015Z,24.87
2019-02-07T23:27:30.344Z,21.03
2019-02-07T23:29:59.671Z,24.93
2019-02-07T23:32:28.987Z,30.90
2019-02-07T23:34:57.519Z,32.83
2019-02-07T23:37:26.835Z,32.00
2019-02-07T23:39:55.333Z,30.97
2019-02-07T23:42:24.749Z,32.90
2019-02-07T23:44:54.049Z,24.90
2019-02-07T23:47:23.466Z,25.57
2019-02-07T23:52:56.298Z,31.83
2019-02-07T23:55:25.713Z,32.73
2019-02-07T23:57:55.037Z,36.60
